Hovedside
METAR-TAF:

METAR-TAF

Lufthavner :

Fort-de-France, Martinique

breddegrad: 14-36N, lengdegrad: 061-00W, høyde over havet: 5 m

Gjeldene værobservasjon

Denne rapporten ble laget for 29 minutter siden, klokken 22:00 UTC
Vind 12 kt fra Øst
Temperatur 26°C
Luftfuktighet 74%
Trykk 1014 hPa
Sikt 10 km eller mer

METAR: TFFF 212200Z AUTO 10012KT 9999 SCT030/// BKN041/// BKN056/// 26/21 Q1014 BECMG 09015G25KT

Tid: 18:29 (22:29 UTC)

Varsel

Denne rapporten ble laget for 5 timer og 29 minutter siden, klokken 17:00 UTC
Varsel gyldig fra 21. klokken 18 UTC til 22. klokken 18 UTC
Vind 15 kt fra Øst med vindkast opp mot 25 kt
Sikt 10 km eller mer
Spredte skyer i en høyde av 3000 ft
Spredte skyer i en høyde av 4000 ft
Sannsynlighet 30% :
Midlertidig
fra 22. klokken 03 UTC til 22. klokken 15 UTC
Sikt: 4000 m
Spredte skyer i en høyde av 1800 ft, Tårnskyer (cumulus).
regnbyger

TAF: TFFF 211700Z 2118/2218 09015G25KT 9999 SCT030 SCT040 PROB30 TEMPO 2203/2215 4000 SHRA SCT018TCU

Værobservasjoner og værvarsel for over 4000 flyplasser (METAR- og TAF-rapporter).

Tilgjengelige stasjoner er representert av de røde og gule prikkene på kartet.

Hold musepekeren over prikken for å se navnet på stasjonen.

Klikk så for å se værobservasjoner og -varsler.

For å forandre kartet kan du klikke på den grønne knappen med svart kryss for å zoome inn, på den grønne knappen med strek for å zoome ut, eller på de grønne pilene for å se tilstøtende kart.


METAR-TAF: